Akinada Bridge — H9PN — position and weather

sailwx.info

Track history (hours):
 
Tides and Currents Weather Stations Pressure Air Temp Water Temp Dewpoint Dewpoint Depression Visibility Wind Speed Wind Dir Waves Ship Positions

Akinada Bridge

Last reported at 2018-Jun-05 09:40 UTC. Time now 2018-Jun-18 02:14 UTC.
Position N 29°18' W 116°52'.
Warning: this ship's position is 12 days out of date.

Length 284.7 m; beam 40 m.

Type: Cargo ship. MMSI: 352675000.

Date/timePositionNaut miles runAvg speedWind from/ knotsBaromVisibWave heightAir tempDewpointWater temp
2018-Jun-05 09:40N 29°18' W 116°52'415.5
2018-Jun-05 09:24N 29°22' W 116°53'615.5
2018-Jun-05 08:59N 29°28' W 116°55'815.4
2018-Jun-05 08:29N 29°35' W 116°58'715.3
2018-Jun-05 08:00N 29°42' W 116°60'815.2
2018-Jun-05 07:30N 29°50' W 117°02'1015.1
2018-Jun-05 06:50N 29°60' W 117°05'110 4.4
2018-Jun-04 05:54N 31°48' W 116°41'8 4.6
2018-Jun-04 04:15N 31°45' W 116°50'314.7
2018-Jun-04 04:00N 31°43' W 116°53'815.2
2018-Jun-04 03:30N 31°40' W 117°01'815.5
2018-Jun-04 03:00N 31°36' W 117°10'1015.3
2018-Jun-04 02:19N 31°31' W 117°20'515.4
2018-Jun-04 01:59N 31°29' W 117°26'1315.4
2018-Jun-04 01:10N 31°23' W 117°39'315.5
2018-Jun-04 00:58N 31°22' W 117°42'915.7
2018-Jun-04 00:25N 31°17' W 117°51'715.6
2018-Jun-03 23:59N 31°14' W 117°58'3715.6
2018-Jun-03 21:36N 30°57' W 118°36'115.9
2018-Jun-03 21:31N 30°57' W 118°38'1116.0
2018-Jun-03 20:48N 30°55' W 118°51'515.7
2018-Jun-03 20:29N 30°54' W 118°57'1115.8
2018-Jun-03 19:48N 30°52' W 119°09'716.3
2018-Jun-03 19:20N 30°50' W 119°18'7216.2
2018-Jun-03 14:54N 30°37' W 120°39'14314.8
2018-Jun-03 05:14N 31°22' W 123°18'7616.3
2018-Jun-03 00:33N 32°09' W 124°29'116.6
2018-Jun-03 00:30N 32°09' W 124°30'816.3
2018-Jun-02 23:59N 32°14' W 124°38'3016.3
2018-Jun-02 22:10N 32°33' W 125°05'  
Track history (hours):
 
Tides and Currents Weather Stations Pressure Air Temp Water Temp Dewpoint Dewpoint Depression Visibility Wind Speed Wind Dir Waves Ship Positions

Akinada Bridge

Last reported at 2018-Jun-05 09:40 UTC. Time now 2018-Jun-18 02:14 UTC.
Position N 29°18' W 116°52'.
Warning: this ship's position is 12 days out of date.

Length 284.7 m; beam 40 m.

Type: Cargo ship. MMSI: 352675000.

Date/timePositionNaut miles runAvg speedWind from/ knotsBaromVisibWave heightAir tempDewpointWater temp
2018-Jun-05 09:40N 29°18' W 116°52'415.5
2018-Jun-05 09:24N 29°22' W 116°53'615.5
2018-Jun-05 08:59N 29°28' W 116°55'815.4
2018-Jun-05 08:29N 29°35' W 116°58'715.3
2018-Jun-05 08:00N 29°42' W 116°60'815.2
2018-Jun-05 07:30N 29°50' W 117°02'1015.1
2018-Jun-05 06:50N 29°60' W 117°05'110 4.4
2018-Jun-04 05:54N 31°48' W 116°41'8 4.6
2018-Jun-04 04:15N 31°45' W 116°50'314.7
2018-Jun-04 04:00N 31°43' W 116°53'815.2
2018-Jun-04 03:30N 31°40' W 117°01'815.5
2018-Jun-04 03:00N 31°36' W 117°10'1015.3
2018-Jun-04 02:19N 31°31' W 117°20'515.4
2018-Jun-04 01:59N 31°29' W 117°26'1315.4
2018-Jun-04 01:10N 31°23' W 117°39'315.5
2018-Jun-04 00:58N 31°22' W 117°42'915.7
2018-Jun-04 00:25N 31°17' W 117°51'715.6
2018-Jun-03 23:59N 31°14' W 117°58'3715.6
2018-Jun-03 21:36N 30°57' W 118°36'115.9
2018-Jun-03 21:31N 30°57' W 118°38'1116.0
2018-Jun-03 20:48N 30°55' W 118°51'515.7
2018-Jun-03 20:29N 30°54' W 118°57'1115.8
2018-Jun-03 19:48N 30°52' W 119°09'716.3
2018-Jun-03 19:20N 30°50' W 119°18'7216.2
2018-Jun-03 14:54N 30°37' W 120°39'14314.8
2018-Jun-03 05:14N 31°22' W 123°18'7616.3
2018-Jun-03 00:33N 32°09' W 124°29'116.6
2018-Jun-03 00:30N 32°09' W 124°30'816.3
2018-Jun-02 23:59N 32°14' W 124°38'3016.3
2018-Jun-02 22:10N 32°33' W 125°05'  

Dump ship's entire track history